Date,TemperatureHighF,TemperatureAvgF,TemperatureLowF,DewpointHighF,DewpointAvgF,DewpointLowF,HumidityHigh,HumidityAvg,HumidityLow,PressureMaxIn,PressureMinIn,WindSpeedMaxMPH,WindSpeedAvgMPH,GustSpeedMaxMPH,PrecipitationSumIn
2013-3-1,31.5,27.7,25.0,28.9,24.0,21.4,91,86,81,30.24,30.09,14,5,17,0.03
2013-3-2,30.9,24.5,14.7,21.4,18.2,11.5,88,77,62,30.26,30.20,13,4,15,0.04
2013-3-3,33.4,23.5,11.5,19.0,14.1,7.3,90,69,36,30.23,30.12,10,1,10,0.02
2013-3-4,36.9,31.7,26.1,30.0,25.3,16.3,85,77,66,30.14,29.93,15,7,18,0.00
2013-3-5,34.5,31.6,27.9,32.0,29.6,25.9,95,92,83,30.07,29.84,16,2,16,0.09
2013-3-6,32.5,28.5,24.8,27.1,24.7,22.3,92,86,78,30.38,30.07,13,2,14,0.17
2013-3-7,36.0,30.0,26.1,27.7,24.7,22.6,89,81,68,30.46,30.37,11,1,12,0.10
2013-3-8,42.4,34.3,25.2,34.5,28.9,22.1,90,81,71,30.48,30.27,12,3,13,0.00
2013-3-9,50.7,42.6,36.0,42.8,36.8,31.1,90,80,68,30.27,29.80,16,4,17,0.10
2013-3-10,51.8,48.9,44.6,50.7,47.0,41.7,97,93,77,29.81,29.56,15,3,18,1.24
2013-3-11,48.9,37.1,31.5,48.0,34.7,27.1,97,91,84,29.93,29.61,19,8,25,0.01
2013-3-12,39.7,31.7,26.6,33.3,26.3,19.8,91,80,66,30.15,29.91,23,8,24,0.00
2013-3-13,36.3,28.5,23.4,23.9,20.8,18.1,90,73,49,30.40,30.14,14,6,22,0.01
2013-3-14,44.4,32.9,23.2,31.6,26.0,19.6,88,76,58,30.40,30.11,16,3,18,0.00
2013-3-15,54.0,41.8,30.6,43.9,36.1,27.9,91,81,63,30.11,29.68,11,3,19,0.00
2013-3-16,45.3,36.3,30.7,41.9,32.7,26.8,95,87,71,30.14,29.65,14,3,17,0.00
2013-3-17,38.7,33.2,30.0,30.0,27.0,24.1,87,78,68,30.19,29.93,15,8,16,0.00
2013-3-18,39.9,32.7,26.1,35.8,28.4,16.9,94,84,69,29.95,29.71,18,9,23,0.05
2013-3-19,40.5,29.2,20.5,21.4,16.6,11.7,76,60,38,30.19,29.93,22,8,26,0.00
2013-3-20,30.6,24.2,16.5,21.9,12.1,6.1,78,60,43,30.22,30.12,22,8,23,0.00
2013-3-21,35.8,24.2,12.6,16.2,12.1,8.6,86,61,40,30.15,30.05,12,2,15,0.00
2013-3-22,44.4,32.3,19.0,24.3,19.0,15.3,87,61,36,30.12,30.02,10,1,12,0.00
2013-3-23,47.7,38.0,30.4,28.9,25.4,23.5,78,61,44,30.12,29.98,15,6,17,0.00
2013-3-24,32.7,30.9,29.5,30.4,28.3,24.6,94,90,72,30.00,29.64,17,7,19,0.00
2013-3-25,37.2,31.8,27.3,29.8,27.5,24.3,94,84,73,30.15,29.76,14,3,19,0.38
2013-3-26,39.7,34.5,30.2,28.9,27.4,25.0,86,76,57,30.32,30.15,12,4,15,0.19
2013-3-27,43.9,35.5,27.1,28.9,25.3,21.0,88,68,44,30.40,30.32,10,2,14,0.01
2013-3-28,49.5,37.8,25.2,34.2,28.2,21.9,89,69,51,30.41,30.31,12,1,12,0.00
2013-3-29,57.9,45.9,35.8,35.4,32.6,29.5,83,62,40,30.33,30.22,10,1,11,0.00
2013-3-30,56.3,47.3,35.4,44.1,38.6,31.3,90,72,55,30.24,29.89,19,4,20,0.00
2013-3-31,61.0,50.1,40.1,46.4,40.1,29.5,94,71,41,29.95,29.79,18,6,22,0.00